createdAt,value
2018-11-27T00:00:18.317Z,32.23
2018-11-27T00:02:46.886Z,34.27
2018-11-27T00:07:45.988Z,32.53
2018-11-27T00:10:14.691Z,32.30
2018-11-27T00:12:43.256Z,26.27
2018-11-27T00:15:13.115Z,26.97
2018-11-27T00:17:42.369Z,26.53
2018-11-27T00:20:13.753Z,24.80
2018-11-27T00:22:42.513Z,24.93
2018-11-27T00:25:14.243Z,26.07
2018-11-27T00:27:43.188Z,29.57
2018-11-27T00:30:21.639Z,24.60
2018-11-27T00:32:50.615Z,28.70
2018-11-27T00:35:20.452Z,24.07
2018-11-27T00:37:49.003Z,27.40
2018-11-27T00:40:19.995Z,28.87
2018-11-27T00:42:48.983Z,25.00
2018-11-27T00:45:18.837Z,23.20
2018-11-27T00:47:48.581Z,23.97
2018-11-27T00:50:19.204Z,23.87
2018-11-27T00:52:47.766Z,26.27
2018-11-27T00:55:17.270Z,25.23
2018-11-27T00:57:52.987Z,25.33
2018-11-27T01:00:22.400Z,25.37
2018-11-27T01:02:51.032Z,24.17
2018-11-27T01:05:21.898Z,27.23
2018-11-27T01:07:50.560Z,25.97
2018-11-27T01:10:20.973Z,21.70
2018-11-27T01:12:49.632Z,35.77
2018-11-27T01:15:18.243Z,24.20
2018-11-27T01:17:48.919Z,23.80
2018-11-27T01:20:19.654Z,23.67
2018-11-27T01:22:48.341Z,24.23
2018-11-27T01:25:16.881Z,27.20
2018-11-27T01:27:45.539Z,22.73
2018-11-27T01:30:16.023Z,25.87
2018-11-27T01:32:44.811Z,26.47
2018-11-27T01:35:14.923Z,23.67
2018-11-27T01:37:43.606Z,21.17
2018-11-27T01:40:16.983Z,23.33
2018-11-27T01:42:46.038Z,22.57
2018-11-27T01:45:16.778Z,24.07
2018-11-27T01:47:45.808Z,21.77
2018-11-27T01:50:15.513Z,24.13
2018-11-27T01:52:44.082Z,23.37
2018-11-27T01:55:14.454Z,21.43
2018-11-27T01:57:43.058Z,22.10
2018-11-27T02:00:21.124Z,22.37
2018-11-27T02:02:49.820Z,22.93
2018-11-27T02:05:18.375Z,23.27
2018-11-27T02:07:46.997Z,23.93
2018-11-27T02:10:15.955Z,23.33
2018-11-27T02:12:45.863Z,21.60
2018-11-27T02:15:17.094Z,23.43
2018-11-27T02:17:45.614Z,22.43
2018-11-27T02:20:14.490Z,23.00
2018-11-27T02:22:43.098Z,20.17
2018-11-27T02:25:14.099Z,22.30
2018-11-27T02:27:42.632Z,36.07
2018-11-27T02:30:13.715Z,28.93
2018-11-27T02:32:42.286Z,23.50
2018-11-27T02:35:12.159Z,42.43
2018-11-27T02:37:40.747Z,31.87
2018-11-27T02:40:12.617Z,30.63
2018-11-27T02:42:41.714Z,28.07
2018-11-27T02:45:13.433Z,26.83
2018-11-27T02:47:42.239Z,23.87
2018-11-27T02:50:11.971Z,24.33
2018-11-27T02:52:40.577Z,22.97
2018-11-27T02:55:12.610Z,22.97
2018-11-27T02:57:41.219Z,23.67
2018-11-27T03:00:12.526Z,24.10
2018-11-27T03:02:41.223Z,22.27
2018-11-27T03:05:15.399Z,19.90
2018-11-27T03:07:44.035Z,27.33
2018-11-27T03:10:13.776Z,19.87
2018-11-27T03:12:42.351Z,22.17
2018-11-27T03:15:14.596Z,20.47
2018-11-27T03:17:43.122Z,23.17
2018-11-27T03:20:12.903Z,25.30
2018-11-27T03:22:41.721Z,22.70
2018-11-27T03:25:13.460Z,21.07
2018-11-27T03:27:42.181Z,21.97
2018-11-27T03:30:12.915Z,22.57
2018-11-27T03:32:41.521Z,24.53
2018-11-27T03:35:11.835Z,23.70
2018-11-27T03:37:40.710Z,23.27
2018-11-27T03:40:14.239Z,23.07
2018-11-27T03:42:43.131Z,23.87
2018-11-27T03:45:13.647Z,25.07
2018-11-27T03:47:42.515Z,25.50
2018-11-27T03:50:14.382Z,23.83
2018-11-27T03:52:42.909Z,23.00
2018-11-27T03:55:12.387Z,30.47
2018-11-27T03:57:41.366Z,31.00
2018-11-27T04:00:19.166Z,33.97
2018-11-27T04:02:51.036Z,57.57
2018-11-27T04:05:20.218Z,33.10
2018-11-27T04:07:48.739Z,31.93
2018-11-27T04:10:18.478Z,27.80
2018-11-27T04:12:47.065Z,21.70
2018-11-27T04:15:15.600Z,22.47
2018-11-27T04:17:44.219Z,22.10
2018-11-27T04:20:13.543Z,23.20
2018-11-27T04:22:42.821Z,25.87
2018-11-27T04:25:14.721Z,22.83
2018-11-27T04:27:43.942Z,24.70
2018-11-27T04:30:16.773Z,23.43
2018-11-27T04:32:45.414Z,29.20
2018-11-27T04:35:16.797Z,35.00
2018-11-27T04:37:45.850Z,27.17
2018-11-27T04:40:15.399Z,24.93
2018-11-27T04:42:44.352Z,25.03
2018-11-27T04:45:18.034Z,24.53
2018-11-27T04:47:46.605Z,25.13
2018-11-27T04:50:16.273Z,24.23
2018-11-27T04:52:45.352Z,20.83
2018-11-27T04:55:17.663Z,22.60
2018-11-27T04:57:47.272Z,23.03
2018-11-27T05:00:18.817Z,23.27
2018-11-27T05:02:47.381Z,25.30
2018-11-27T05:05:16.068Z,24.60
2018-11-27T05:07:50.963Z,23.23
2018-11-27T05:10:21.211Z,24.17
2018-11-27T05:12:50.098Z,24.60
2018-11-27T05:15:20.366Z,23.03
2018-11-27T05:17:50.100Z,22.30
2018-11-27T05:20:18.814Z,21.93
2018-11-27T05:22:47.380Z,23.67
2018-11-27T05:25:17.548Z,21.77
2018-11-27T05:27:48.468Z,22.73
2018-11-27T05:30:19.982Z,22.33
2018-11-27T05:32:48.599Z,25.90
2018-11-27T05:35:18.303Z,24.50
2018-11-27T05:37:47.948Z,21.13
2018-11-27T05:40:18.713Z,24.80
2018-11-27T05:42:48.096Z,22.17
2018-11-27T05:45:17.643Z,23.87
2018-11-27T05:47:46.296Z,23.27
2018-11-27T05:50:15.816Z,23.43
2018-11-27T05:52:44.515Z,22.37
2018-11-27T05:55:13.896Z,22.87
2018-11-27T05:57:43.046Z,23.83
2018-11-27T06:00:13.115Z,35.60
2018-11-27T06:02:41.912Z,27.40
2018-11-27T06:05:12.686Z,25.13
2018-11-27T06:07:41.239Z,31.93
2018-11-27T06:10:12.590Z,28.73
2018-11-27T06:12:41.284Z,30.43
2018-11-27T06:15:11.504Z,41.57
2018-11-27T06:17:40.085Z,36.93
2018-11-27T06:20:10.849Z,34.80
2018-11-27T06:22:39.567Z,29.83
2018-11-27T06:25:11.153Z,130.93
2018-11-27T06:27:39.883Z,116.77
2018-11-27T06:30:20.047Z,73.97
2018-11-27T06:32:48.946Z,56.50
2018-11-27T06:35:19.828Z,33.27
2018-11-27T06:37:48.464Z,31.83
2018-11-27T06:40:20.460Z,39.30
2018-11-27T06:42:49.092Z,46.23
2018-11-27T06:45:18.897Z,45.13
2018-11-27T06:47:49.060Z,83.33
2018-11-27T06:50:18.613Z,89.00
2018-11-27T06:52:47.257Z,48.60
2018-11-27T06:55:17.044Z,51.97
2018-11-27T06:57:45.696Z,75.80
2018-11-27T07:00:20.017Z,55.57
2018-11-27T07:02:49.081Z,62.83
2018-11-27T07:05:17.695Z,57.60
2018-11-27T07:07:46.528Z,58.03
2018-11-27T07:10:19.051Z,56.93
2018-11-27T07:12:48.308Z,48.77
2018-11-27T07:15:18.249Z,51.80
2018-11-27T07:17:46.843Z,50.17
2018-11-27T07:20:15.435Z,54.93
2018-11-27T07:22:43.987Z,54.97
2018-11-27T07:25:14.626Z,55.90
2018-11-27T07:27:45.681Z,43.80
2018-11-27T07:30:20.256Z,47.10
2018-11-27T07:32:47.802Z,48.67
2018-11-27T07:35:17.385Z,52.80
2018-11-27T07:37:46.163Z,65.63
2018-11-27T07:40:16.815Z,60.77
2018-11-27T07:42:45.638Z,68.37
2018-11-27T07:45:16.363Z,57.53
2018-11-27T07:47:44.927Z,53.53
2018-11-27T07:50:14.224Z,51.63
2018-11-27T07:52:42.935Z,59.07
2018-11-27T07:55:13.524Z,45.30
2018-11-27T07:57:42.132Z,38.57
2018-11-27T08:00:14.868Z,40.37
2018-11-27T08:02:44.509Z,49.40
2018-11-27T08:05:17.723Z,41.20
2018-11-27T08:07:56.460Z,45.63
2018-11-27T08:10:26.338Z,45.43
2018-11-27T08:12:55.330Z,41.77
2018-11-27T08:15:25.919Z,37.47
2018-11-27T08:17:54.512Z,38.20
2018-11-27T08:20:26.791Z,39.43
2018-11-27T08:22:55.438Z,40.57
2018-11-27T08:25:23.991Z,40.70
2018-11-27T08:27:52.608Z,41.00
2018-11-27T08:30:21.826Z,38.87
2018-11-27T08:32:50.525Z,37.17
2018-11-27T08:35:23.044Z,50.53
2018-11-27T08:37:52.524Z,40.33
2018-11-27T08:40:22.175Z,43.37
2018-11-27T08:42:50.872Z,58.90
2018-11-27T08:45:21.344Z,56.17
2018-11-27T08:47:50.760Z,49.17
2018-11-27T08:50:21.277Z,55.63
2018-11-27T08:52:55.688Z,69.33
2018-11-27T08:55:33.648Z,56.93
2018-11-27T08:58:02.662Z,59.03
2018-11-27T09:00:31.248Z,44.70
2018-11-27T09:02:59.826Z,50.20
2018-11-27T09:05:28.479Z,46.97
2018-11-27T09:07:57.149Z,44.60
2018-11-27T09:10:26.528Z,48.50
2018-11-27T09:12:55.127Z,46.13
2018-11-27T09:15:24.115Z,41.97
2018-11-27T09:17:57.184Z,37.30
2018-11-27T09:20:25.741Z,43.10
2018-11-27T09:22:54.282Z,72.30
2018-11-27T09:25:22.899Z,43.47
2018-11-27T09:27:51.568Z,39.30
2018-11-27T09:30:22.324Z,38.63
2018-11-27T09:32:50.936Z,34.57
2018-11-27T09:35:19.589Z,38.07
2018-11-27T09:37:48.367Z,36.93
2018-11-27T09:40:18.407Z,38.93
2018-11-27T09:42:46.991Z,39.23
2018-11-27T09:45:22.658Z,37.30
2018-11-27T09:47:52.564Z,39.87
2018-11-27T09:50:21.300Z,47.87
2018-11-27T09:52:50.085Z,35.33
2018-11-27T09:55:19.772Z,56.90
2018-11-27T09:57:48.463Z,115.43
2018-11-27T10:00:19.384Z,45.67
2018-11-27T10:02:48.479Z,35.07
2018-11-27T10:05:17.171Z,37.17
2018-11-27T10:07:45.800Z,41.17
2018-11-27T10:10:16.735Z,33.20
2018-11-27T10:12:45.284Z,45.80
2018-11-27T10:15:21.620Z,35.73
2018-11-27T10:17:54.292Z,32.70
2018-11-27T10:20:23.988Z,32.40
2018-11-27T10:22:52.643Z,37.90
2018-11-27T10:25:21.247Z,34.07
2018-11-27T10:27:50.085Z,33.47
2018-11-27T10:30:21.887Z,33.33
2018-11-27T10:32:51.477Z,46.37
2018-11-27T10:35:26.294Z,40.13
2018-11-27T10:37:54.932Z,38.30
2018-11-27T10:40:23.559Z,50.73
2018-11-27T10:42:52.231Z,56.53
2018-11-27T10:45:21.820Z,44.83
2018-11-27T10:47:51.575Z,43.80
2018-11-27T10:50:20.524Z,49.17
2018-11-27T10:52:51.151Z,41.53
2018-11-27T10:55:20.419Z,39.40
2018-11-27T10:57:49.041Z,45.17
2018-11-27T11:00:26.751Z,44.33
2018-11-27T11:04:04.450Z,40.57
2018-11-27T11:06:33.442Z,41.90
2018-11-27T11:09:02.975Z,37.03
2018-11-27T11:11:31.518Z,32.87
2018-11-27T11:14:00.127Z,30.27
2018-11-27T11:16:28.651Z,31.83
2018-11-27T11:18:57.194Z,30.13
2018-11-27T11:21:25.796Z,30.23
2018-11-27T11:23:54.750Z,29.83
2018-11-27T11:26:23.298Z,33.33
2018-11-27T11:28:51.876Z,39.77
2018-11-27T11:31:20.510Z,29.87
2018-11-27T11:33:49.040Z,33.60
2018-11-27T11:36:17.612Z,94.13
2018-11-27T11:38:46.191Z,27.83
2018-11-27T11:41:14.929Z,51.17
2018-11-27T11:43:43.529Z,63.37
2018-11-27T11:46:12.418Z,32.53
2018-11-27T11:48:40.968Z,25.83
2018-11-27T11:51:09.559Z,32.87
2018-11-27T11:53:38.148Z,34.30
2018-11-27T11:56:08.202Z,73.40
2018-11-27T11:58:36.891Z,98.07
2018-11-27T12:01:05.723Z,51.60
2018-11-27T12:03:34.294Z,45.83
2018-11-27T12:06:02.887Z,27.00
2018-11-27T12:08:31.443Z,26.97
2018-11-27T12:11:00.002Z,23.50
2018-11-27T12:13:28.596Z,31.77
2018-11-27T12:15:57.148Z,40.67
2018-11-27T12:18:25.720Z,54.43
2018-11-27T12:20:54.355Z,67.50
2018-11-27T12:23:22.899Z,96.63
2018-11-27T12:25:51.536Z,102.33
2018-11-27T12:28:20.141Z,120.80
2018-11-27T12:30:48.681Z,95.47
2018-11-27T12:33:17.331Z,38.63
2018-11-27T12:35:45.972Z,30.20
2018-11-27T12:38:14.525Z,38.83
2018-11-27T12:40:43.099Z,55.23
2018-11-27T12:43:11.720Z,115.77
2018-11-27T12:45:40.297Z,103.43
2018-11-27T12:48:08.851Z,50.73
2018-11-27T12:50:40.281Z,43.10
2018-11-27T12:53:10.252Z,51.30
2018-11-27T12:55:40.292Z,50.63
2018-11-27T12:58:08.932Z,52.37
2018-11-27T13:00:37.537Z,37.93
2018-11-27T13:03:06.365Z,43.13
2018-11-27T13:05:40.262Z,39.80
2018-11-27T13:08:18.484Z,40.53
2018-11-27T13:10:47.160Z,34.63
2018-11-27T13:13:16.112Z,35.63
2018-11-27T13:15:45.245Z,32.20
2018-11-27T13:18:13.842Z,29.63
2018-11-27T13:20:42.862Z,33.77
2018-11-27T13:23:11.461Z,46.33
2018-11-27T13:25:40.155Z,31.43
2018-11-27T13:28:10.148Z,42.50
2018-11-27T13:30:46.668Z,107.27
2018-11-27T13:33:19.618Z,192.23
2018-11-27T13:35:48.291Z,92.40
2018-11-27T13:38:16.924Z,57.10
2018-11-27T13:40:45.505Z,96.33
2018-11-27T13:43:31.895Z,144.73
2018-11-27T13:46:01.388Z,48.53
2018-11-27T13:48:30.301Z,51.03
2018-11-27T13:50:58.957Z,48.93
2018-11-27T13:53:27.535Z,64.70
2018-11-27T13:55:56.089Z,40.67
2018-11-27T13:58:25.064Z,38.63
2018-11-27T14:00:53.635Z,39.70
2018-11-27T14:03:22.226Z,40.23
2018-11-27T14:05:50.852Z,117.27
2018-11-27T14:08:19.786Z,74.63
2018-11-27T14:10:48.737Z,132.03
2018-11-27T14:13:17.688Z,173.30
2018-11-27T14:15:46.252Z,135.07
2018-11-27T14:18:15.140Z,61.03
2018-11-27T14:20:44.107Z,63.77
2018-11-27T14:23:12.667Z,48.23
2018-11-27T14:25:41.264Z,41.43
2018-11-27T14:28:10.207Z,38.83
2018-11-27T14:30:38.756Z,36.60
2018-11-27T14:33:07.290Z,38.57
2018-11-27T14:35:36.014Z,36.73
2018-11-27T14:38:04.572Z,38.23
2018-11-27T14:40:33.120Z,40.00
2018-11-27T14:43:01.732Z,36.60
2018-11-27T14:45:30.286Z,83.70
2018-11-27T14:47:59.535Z,109.80
2018-11-27T14:50:28.125Z,190.87
2018-11-27T14:52:56.746Z,115.27
2018-11-27T14:55:27.473Z,61.70
2018-11-27T14:57:56.068Z,66.93
2018-11-27T15:00:25.426Z,142.80
2018-11-27T15:02:54.040Z,45.30
2018-11-27T15:05:26.991Z,50.40
2018-11-27T15:07:55.536Z,42.93
2018-11-27T15:10:24.086Z,63.30
2018-11-27T15:12:53.050Z,105.70
2018-11-27T15:15:21.604Z,75.83
2018-11-27T15:17:50.165Z,73.13
2018-11-27T15:20:19.696Z,88.60
2018-11-27T15:22:48.284Z,81.00
2018-11-27T15:25:17.129Z,79.50
2018-11-27T15:27:46.154Z,73.40
2018-11-27T15:30:18.000Z,92.47
2018-11-27T15:32:46.569Z,76.07
2018-11-27T15:35:15.253Z,77.17
2018-11-27T15:37:43.916Z,64.33
2018-11-27T15:40:15.580Z,66.10
2018-11-27T15:42:44.198Z,56.90
2018-11-27T15:45:16.031Z,62.90
2018-11-27T15:47:44.600Z,67.33
2018-11-27T15:50:13.255Z,68.23
2018-11-27T15:52:41.810Z,59.90
2018-11-27T15:55:12.892Z,64.30
2018-11-27T15:57:41.503Z,76.70
2018-11-27T16:00:16.296Z,79.03
2018-11-27T16:02:45.131Z,88.13
2018-11-27T16:05:14.157Z,91.77
2018-11-27T16:07:42.835Z,75.13
2018-11-27T16:10:12.507Z,85.60
2018-11-27T16:12:41.834Z,107.93
2018-11-27T16:15:18.416Z,93.83
2018-11-27T16:17:47.243Z,71.00
2018-11-27T16:20:16.959Z,74.50
2018-11-27T16:22:50.007Z,86.13
2018-11-27T16:25:19.539Z,69.33
2018-11-27T16:27:48.108Z,91.57
2018-11-27T16:30:21.875Z,99.37
2018-11-27T16:32:50.505Z,73.27
2018-11-27T16:35:19.117Z,54.23
2018-11-27T16:37:50.424Z,84.97
2018-11-27T16:40:21.347Z,54.57
2018-11-27T16:42:49.892Z,63.30
2018-11-27T16:45:19.736Z,64.07
2018-11-27T16:47:48.974Z,67.00
2018-11-27T16:50:18.323Z,60.17
2018-11-27T16:52:47.139Z,59.53
2018-11-27T16:55:17.668Z,56.93
2018-11-27T16:57:46.565Z,63.20
2018-11-27T17:00:21.330Z,57.67
2018-11-27T17:02:50.985Z,55.67
2018-11-27T17:05:19.596Z,58.13
2018-11-27T17:07:48.212Z,56.77
2018-11-27T17:10:17.840Z,68.33
2018-11-27T17:12:47.432Z,65.37
2018-11-27T17:15:24.921Z,64.83
2018-11-27T17:17:53.475Z,70.37
2018-11-27T17:20:37.058Z,77.97
2018-11-27T17:23:07.601Z,76.97
2018-11-27T17:25:36.249Z,71.30
2018-11-27T17:28:10.525Z,72.50
2018-11-27T17:30:42.120Z,64.53
2018-11-27T17:33:14.246Z,65.07
2018-11-27T17:35:42.894Z,70.27
2018-11-27T17:38:11.628Z,72.73
2018-11-27T17:40:40.274Z,80.10
2018-11-27T17:43:08.824Z,89.00
2018-11-27T17:45:37.649Z,115.03
2018-11-27T17:48:06.725Z,85.67
2018-11-27T17:50:35.303Z,98.70
2018-11-27T17:53:03.874Z,92.57
2018-11-27T17:55:32.467Z,116.10
2018-11-27T17:58:01.003Z,109.97
2018-11-27T18:00:30.474Z,83.43
2018-11-27T18:03:03.640Z,77.27
2018-11-27T18:05:32.295Z,77.17
2018-11-27T18:08:00.848Z,83.87
2018-11-27T18:10:29.444Z,70.77
2018-11-27T18:12:58.016Z,76.87
2018-11-27T18:15:26.978Z,81.43
2018-11-27T18:17:55.700Z,108.50
2018-11-27T18:20:24.699Z,176.40
2018-11-27T18:22:53.308Z,122.47
2018-11-27T18:25:21.961Z,113.87
2018-11-27T18:27:50.886Z,104.87
2018-11-27T18:30:20.675Z,78.83
2018-11-27T18:32:49.295Z,650.53
2018-11-27T18:35:19.015Z,105.37
2018-11-27T18:37:48.116Z,83.60
2018-11-27T18:40:17.369Z,78.80
2018-11-27T18:42:46.297Z,518.57
2018-11-27T18:45:17.984Z,89.37
2018-11-27T18:47:47.023Z,311.37
2018-11-27T18:50:16.319Z,102.03
2018-11-27T18:52:45.792Z,310.87
2018-11-27T18:55:15.872Z,174.33
2018-11-27T18:57:46.235Z,174.77
2018-11-27T19:00:18.276Z,93.60
2018-11-27T19:02:47.753Z,279.50
2018-11-27T19:05:17.019Z,123.43
2018-11-27T19:07:46.308Z,117.37
2018-11-27T19:10:26.244Z,549.77
2018-11-27T19:12:56.208Z,467.37
2018-11-27T19:15:35.911Z,502.70
2018-11-27T19:18:11.699Z,253.27
2018-11-27T19:20:43.489Z,110.73
2018-11-27T19:23:17.363Z,89.60
2018-11-27T19:25:49.092Z,164.50
2018-11-27T19:28:18.394Z,110.80
2018-11-27T19:30:49.260Z,103.23
2018-11-27T19:33:18.400Z,233.80
2018-11-27T19:35:57.351Z,233.47
2018-11-27T19:38:26.791Z,159.57
2018-11-27T19:40:56.303Z,228.77
2018-11-27T19:43:25.922Z,318.30
2018-11-27T19:45:55.429Z,283.93
2018-11-27T19:48:25.296Z,596.70
2018-11-27T19:50:54.116Z,866.70
2018-11-27T19:53:23.250Z,425.23
2018-11-27T19:55:52.886Z,613.63
2018-11-27T19:58:22.221Z,245.10
2018-11-27T20:00:51.377Z,89.83
2018-11-27T20:03:20.086Z,109.60
2018-11-27T20:05:48.800Z,359.17
2018-11-27T20:08:17.752Z,240.13
2018-11-27T20:10:46.740Z,79.07
2018-11-27T20:13:15.928Z,105.87
2018-11-27T20:15:44.584Z,76.23
2018-11-27T20:18:13.216Z,90.37
2018-11-27T20:20:42.694Z,66.73
2018-11-27T20:23:11.372Z,88.13
2018-11-27T20:25:40.201Z,88.70
2018-11-27T20:28:09.648Z,75.80
2018-11-27T20:30:40.931Z,147.60
2018-11-27T20:33:09.991Z,360.40
2018-11-27T20:35:39.467Z,117.80
2018-11-27T20:38:09.650Z,97.27
2018-11-27T20:40:39.003Z,72.47
2018-11-27T20:43:09.357Z,73.67
2018-11-27T20:45:40.603Z,88.40
2018-11-27T20:48:17.010Z,77.60
2018-11-27T20:50:47.912Z,82.47
2018-11-27T20:53:16.914Z,80.27
2018-11-27T20:55:45.565Z,78.47
2018-11-27T20:58:14.239Z,77.23
2018-11-27T21:00:44.121Z,72.40
2018-11-27T21:03:13.389Z,60.13
2018-11-27T21:05:41.976Z,63.70
2018-11-27T21:08:10.557Z,66.07
2018-11-27T21:10:39.668Z,91.07
2018-11-27T21:13:09.544Z,104.33
2018-11-27T21:15:38.865Z,63.93
2018-11-27T21:18:08.047Z,62.40
2018-11-27T21:20:37.030Z,64.93
2018-11-27T21:23:05.710Z,66.70
2018-11-27T21:25:34.727Z,70.77
2018-11-27T21:28:18.975Z,67.10
2018-11-27T21:30:51.205Z,77.33
2018-11-27T21:33:19.794Z,95.33
2018-11-27T21:35:48.396Z,103.03
2018-11-27T21:38:17.174Z,106.63
2018-11-27T21:40:45.779Z,130.30
2018-11-27T21:43:14.772Z,104.27
2018-11-27T21:45:43.415Z,134.57
2018-11-27T21:48:12.034Z,183.17
2018-11-27T21:50:41.617Z,185.37
2018-11-27T21:53:10.239Z,134.00
2018-11-27T21:55:39.818Z,121.73
2018-11-27T21:58:08.821Z,95.20
2018-11-27T22:00:38.177Z,81.00
2018-11-27T22:03:07.880Z,120.20
2018-11-27T22:05:36.555Z,115.73
2018-11-27T22:08:05.740Z,107.03
2018-11-27T22:10:34.384Z,109.00
2018-11-27T22:13:02.959Z,120.23
2018-11-27T22:15:33.599Z,108.50
2018-11-27T22:18:02.283Z,115.37
2018-11-27T22:20:30.925Z,103.20
2018-11-27T22:22:59.604Z,64.57
2018-11-27T22:25:28.403Z,94.93
2018-11-27T22:27:56.800Z,79.03
2018-11-27T22:30:25.497Z,95.90
2018-11-27T22:32:54.948Z,70.37
2018-11-27T22:35:23.818Z,95.03
2018-11-27T22:37:52.515Z,173.13
2018-11-27T22:40:22.503Z,74.47
2018-11-27T22:42:51.892Z,66.73
2018-11-27T22:45:26.870Z,69.33
2018-11-27T22:47:55.419Z,67.87
2018-11-27T22:50:23.984Z,82.03
2018-11-27T22:52:52.610Z,92.13
2018-11-27T22:55:21.213Z,201.13
2018-11-27T22:57:49.741Z,144.63
2018-11-27T23:00:32.169Z,98.03
2018-11-27T23:03:01.061Z,117.50
2018-11-27T23:05:29.989Z,112.23
2018-11-27T23:07:58.680Z,90.17
2018-11-27T23:10:28.674Z,97.17
2018-11-27T23:12:57.304Z,112.90
2018-11-27T23:15:25.909Z,89.87
2018-11-27T23:17:54.476Z,86.03
2018-11-27T23:20:23.387Z,86.73
2018-11-27T23:22:51.974Z,75.87
2018-11-27T23:25:20.563Z,71.53
2018-11-27T23:27:49.103Z,82.90
2018-11-27T23:30:21.643Z,72.87
2018-11-27T23:32:50.387Z,103.50
2018-11-27T23:35:19.077Z,126.57
2018-11-27T23:37:47.807Z,93.17
2018-11-27T23:40:18.684Z,91.67
2018-11-27T23:42:47.643Z,75.10
2018-11-27T23:45:17.512Z,81.77
2018-11-27T23:47:46.204Z,77.63
2018-11-27T23:50:16.363Z,71.37
2018-11-27T23:52:45.494Z,131.07
2018-11-27T23:55:15.678Z,89.27
2018-11-27T23:57:44.564Z,82.50
